sensor_id;sensor_type;location;lat;lon;timestamp;pressure;altitude;pressure_sealevel;temperature;humidity
63306;BME280;50735;52.060;1.248;2023-05-09T00:02:00;101191.29;;;12.21;65.81
63306;BME280;50735;52.060;1.248;2023-05-09T00:04:32;101187.11;;;11.99;66.51
63306;BME280;50735;52.060;1.248;2023-05-09T00:07:05;101186.18;;;12.09;66.38
63306;BME280;50735;52.060;1.248;2023-05-09T00:09:36;101182.11;;;11.90;66.72
63306;BME280;50735;52.060;1.248;2023-05-09T00:12:08;101179.69;;;11.77;66.87
63306;BME280;50735;52.060;1.248;2023-05-09T00:14:40;101171.41;;;12.14;66.33
63306;BME280;50735;52.060;1.248;2023-05-09T00:17:12;101166.44;;;12.14;66.22
63306;BME280;50735;52.060;1.248;2023-05-09T00:19:44;101166.55;;;11.96;66.47
63306;BME280;50735;52.060;1.248;2023-05-09T00:22:17;101164.16;;;12.03;66.02
63306;BME280;50735;52.060;1.248;2023-05-09T00:24:49;101159.79;;;12.12;66.33
63306;BME280;50735;52.060;1.248;2023-05-09T00:27:21;101153.81;;;11.87;66.99
63306;BME280;50735;52.060;1.248;2023-05-09T00:29:52;101147.79;;;11.78;67.14
63306;BME280;50735;52.060;1.248;2023-05-09T00:32:24;101145.57;;;11.74;67.29
63306;BME280;50735;52.060;1.248;2023-05-09T00:34:55;101144.74;;;11.79;67.19
63306;BME280;50735;52.060;1.248;2023-05-09T00:37:28;101145.93;;;12.01;66.74
63306;BME280;50735;52.060;1.248;2023-05-09T00:40:00;101139.58;;;12.29;67.03
63306;BME280;50735;52.060;1.248;2023-05-09T00:42:31;101141.34;;;11.64;67.54
63306;BME280;50735;52.060;1.248;2023-05-09T00:45:04;101134.44;;;11.59;67.49
63306;BME280;50735;52.060;1.248;2023-05-09T00:47:36;101131.50;;;12.00;67.31
63306;BME280;50735;52.060;1.248;2023-05-09T00:50:09;101131.99;;;11.87;67.55
63306;BME280;50735;52.060;1.248;2023-05-09T00:52:41;101132.62;;;11.65;67.43
63306;BME280;50735;52.060;1.248;2023-05-09T00:55:14;101124.23;;;11.51;67.52
63306;BME280;50735;52.060;1.248;2023-05-09T00:57:46;101117.82;;;11.98;67.54
63306;BME280;50735;52.060;1.248;2023-05-09T01:00:18;101119.63;;;11.78;67.70
63306;BME280;50735;52.060;1.248;2023-05-09T01:02:53;101114.20;;;11.36;68.86
63306;BME280;50735;52.060;1.248;2023-05-09T01:05:35;101114.10;;;11.36;68.02
63306;BME280;50735;52.060;1.248;2023-05-09T01:08:14;101106.52;;;11.68;67.60
63306;BME280;50735;52.060;1.248;2023-05-09T01:10:52;101103.63;;;11.22;68.32
63306;BME280;50735;52.060;1.248;2023-05-09T01:13:31;101098.99;;;11.63;68.10
63306;BME280;50735;52.060;1.248;2023-05-09T01:16:08;101093.95;;;11.90;67.49
63306;BME280;50735;52.060;1.248;2023-05-09T01:18:48;101088.62;;;11.56;67.47
63306;BME280;50735;52.060;1.248;2023-05-09T01:21:24;101090.08;;;11.74;67.13
63306;BME280;50735;52.060;1.248;2023-05-09T01:24:12;101080.85;;;11.69;67.83
63306;BME280;50735;52.060;1.248;2023-05-09T01:27:08;101076.10;;;11.47;67.76
63306;BME280;50735;52.060;1.248;2023-05-09T01:29:47;101069.96;;;11.25;68.02
63306;BME280;50735;52.060;1.248;2023-05-09T01:32:24;101067.01;;;11.29;68.08
63306;BME280;50735;52.060;1.248;2023-05-09T01:34:59;101060.81;;;11.63;67.45
63306;BME280;50735;52.060;1.248;2023-05-09T01:37:34;101056.44;;;12.04;66.91
63306;BME280;50735;52.060;1.248;2023-05-09T01:40:09;101052.98;;;11.68;66.75
63306;BME280;50735;52.060;1.248;2023-05-09T01:42:44;101050.24;;;11.76;67.39
63306;BME280;50735;52.060;1.248;2023-05-09T01:45:18;101044.98;;;11.88;66.88
63306;BME280;50735;52.060;1.248;2023-05-09T01:47:51;101038.51;;;11.66;66.69
63306;BME280;50735;52.060;1.248;2023-05-09T01:50:26;101036.82;;;11.85;66.81
63306;BME280;50735;52.060;1.248;2023-05-09T01:53:01;101032.54;;;11.68;66.50
63306;BME280;50735;52.060;1.248;2023-05-09T01:55:34;101024.96;;;11.86;66.79
63306;BME280;50735;52.060;1.248;2023-05-09T01:58:08;101021.13;;;11.85;66.25
63306;BME280;50735;52.060;1.248;2023-05-09T02:00:42;101021.75;;;12.02;66.64
63306;BME280;50735;52.060;1.248;2023-05-09T02:03:14;101019.67;;;11.81;66.64
63306;BME280;50735;52.060;1.248;2023-05-09T02:05:47;101018.80;;;12.25;66.47
63306;BME280;50735;52.060;1.248;2023-05-09T02:08:19;101017.67;;;11.76;66.89
63306;BME280;50735;52.060;1.248;2023-05-09T02:10:51;101014.98;;;11.77;66.91
63306;BME280;50735;52.060;1.248;2023-05-09T02:13:22;101015.10;;;11.97;65.98
63306;BME280;50735;52.060;1.248;2023-05-09T02:15:55;101006.66;;;11.82;66.46
63306;BME280;50735;52.060;1.248;2023-05-09T02:18:27;101009.63;;;12.16;65.87
63306;BME280;50735;52.060;1.248;2023-05-09T02:20:59;101002.22;;;12.20;66.06
63306;BME280;50735;52.060;1.248;2023-05-09T02:23:31;100996.62;;;12.10;66.69
63306;BME280;50735;52.060;1.248;2023-05-09T02:26:03;100995.90;;;11.86;66.58
63306;BME280;50735;52.060;1.248;2023-05-09T02:28:35;100995.22;;;12.14;66.20
63306;BME280;50735;52.060;1.248;2023-05-09T02:31:10;100990.58;;;11.63;66.81
63306;BME280;50735;52.060;1.248;2023-05-09T02:33:44;100986.50;;;11.70;66.82
63306;BME280;50735;52.060;1.248;2023-05-09T02:36:17;100987.13;;;12.05;66.61
63306;BME280;50735;52.060;1.248;2023-05-09T02:38:50;100980.13;;;11.71;66.46
63306;BME280;50735;52.060;1.248;2023-05-09T02:41:22;100975.61;;;11.67;66.74
63306;BME280;50735;52.060;1.248;2023-05-09T02:43:53;100975.95;;;11.50;67.03
63306;BME280;50735;52.060;1.248;2023-05-09T02:46:25;100968.11;;;11.64;66.71
63306;BME280;50735;52.060;1.248;2023-05-09T02:48:56;100966.32;;;11.95;66.60
63306;BME280;50735;52.060;1.248;2023-05-09T02:51:28;100959.46;;;12.04;66.13
63306;BME280;50735;52.060;1.248;2023-05-09T02:54:00;100952.81;;;12.08;66.05
63306;BME280;50735;52.060;1.248;2023-05-09T02:56:31;100951.72;;;11.96;66.32
63306;BME280;50735;52.060;1.248;2023-05-09T02:59:03;100945.51;;;12.20;66.23
63306;BME280;50735;52.060;1.248;2023-05-09T03:01:35;100946.72;;;12.00;66.29
63306;BME280;50735;52.060;1.248;2023-05-09T03:04:06;100939.69;;;11.85;66.19
63306;BME280;50735;52.060;1.248;2023-05-09T03:06:38;100938.31;;;12.35;65.86
63306;BME280;50735;52.060;1.248;2023-05-09T03:09:10;100940.13;;;12.33;65.32
63306;BME280;50735;52.060;1.248;2023-05-09T03:11:41;100937.07;;;12.04;65.79
63306;BME280;50735;52.060;1.248;2023-05-09T03:14:13;100936.57;;;12.24;64.89
63306;BME280;50735;52.060;1.248;2023-05-09T03:16:45;100934.42;;;12.38;65.30
63306;BME280;50735;52.060;1.248;2023-05-09T03:19:16;100931.00;;;12.07;65.73
63306;BME280;50735;52.060;1.248;2023-05-09T03:21:48;100920.93;;;12.01;65.38
63306;BME280;50735;52.060;1.248;2023-05-09T03:24:20;100917.62;;;12.11;65.49
63306;BME280;50735;52.060;1.248;2023-05-09T03:26:52;100918.67;;;12.19;65.06
63306;BME280;50735;52.060;1.248;2023-05-09T03:29:25;100911.59;;;12.68;64.96
63306;BME280;50735;52.060;1.248;2023-05-09T03:31:56;100909.74;;;12.32;64.81
63306;BME280;50735;52.060;1.248;2023-05-09T03:34:28;100902.78;;;12.49;64.38
63306;BME280;50735;52.060;1.248;2023-05-09T03:36:59;100901.41;;;12.61;64.01
63306;BME280;50735;52.060;1.248;2023-05-09T03:39:31;100897.38;;;12.63;63.85
63306;BME280;50735;52.060;1.248;2023-05-09T03:42:03;100892.67;;;12.55;63.86
63306;BME280;50735;52.060;1.248;2023-05-09T03:44:35;100890.74;;;12.44;64.06
63306;BME280;50735;52.060;1.248;2023-05-09T03:47:07;100886.09;;;12.74;63.44
63306;BME280;50735;52.060;1.248;2023-05-09T03:49:39;100885.34;;;12.76;63.47
63306;BME280;50735;52.060;1.248;2023-05-09T03:52:11;100887.89;;;12.87;63.42
63306;BME280;50735;52.060;1.248;2023-05-09T03:54:43;100883.16;;;12.92;63.23
63306;BME280;50735;52.060;1.248;2023-05-09T03:57:14;100877.54;;;12.82;63.28
63306;BME280;50735;52.060;1.248;2023-05-09T03:59:47;100870.62;;;12.95;63.21
63306;BME280;50735;52.060;1.248;2023-05-09T04:02:18;100867.05;;;12.99;63.11
63306;BME280;50735;52.060;1.248;2023-05-09T04:04:49;100862.22;;;13.03;63.05
63306;BME280;50735;52.060;1.248;2023-05-09T04:07:22;100858.34;;;13.05;63.23
63306;BME280;50735;52.060;1.248;2023-05-09T04:09:53;100856.20;;;12.96;63.42
63306;BME280;50735;52.060;1.248;2023-05-09T04:12:26;100856.09;;;12.95;63.22
63306;BME280;50735;52.060;1.248;2023-05-09T04:14:57;100855.87;;;12.88;63.62
63306;BME280;50735;52.060;1.248;2023-05-09T04:17:29;100852.20;;;12.92;63.37
63306;BME280;50735;52.060;1.248;2023-05-09T04:20:01;100850.35;;;12.82;63.83
63306;BME280;50735;52.060;1.248;2023-05-09T04:22:32;100848.00;;;12.60;64.06
63306;BME280;50735;52.060;1.248;2023-05-09T04:25:05;100842.46;;;12.94;63.50
63306;BME280;50735;52.060;1.248;2023-05-09T04:27:37;100843.01;;;13.00;63.28
63306;BME280;50735;52.060;1.248;2023-05-09T04:30:10;100840.09;;;12.99;63.52
63306;BME280;50735;52.060;1.248;2023-05-09T04:32:42;100835.52;;;13.10;63.22
63306;BME280;50735;52.060;1.248;2023-05-09T04:35:14;100829.81;;;13.14;63.08
63306;BME280;50735;52.060;1.248;2023-05-09T04:37:46;100830.77;;;13.06;63.30
63306;BME280;50735;52.060;1.248;2023-05-09T04:40:18;100826.21;;;12.81;63.58
63306;BME280;50735;52.060;1.248;2023-05-09T04:42:49;100823.65;;;13.03;63.61
63306;BME280;50735;52.060;1.248;2023-05-09T04:45:21;100821.44;;;13.02;63.47
63306;BME280;50735;52.060;1.248;2023-05-09T04:47:53;100818.12;;;13.02;63.53
63306;BME280;50735;52.060;1.248;2023-05-09T04:50:24;100814.80;;;12.99;63.64
63306;BME280;50735;52.060;1.248;2023-05-09T04:52:56;100813.61;;;12.93;63.94
63306;BME280;50735;52.060;1.248;2023-05-09T04:55:28;100810.70;;;13.06;63.56
63306;BME280;50735;52.060;1.248;2023-05-09T04:58:00;100808.80;;;13.10;63.38
63306;BME280;50735;52.060;1.248;2023-05-09T05:00:32;100808.22;;;12.81;63.98
63306;BME280;50735;52.060;1.248;2023-05-09T05:03:04;100807.10;;;13.12;63.69
63306;BME280;50735;52.060;1.248;2023-05-09T05:05:36;100805.62;;;13.14;63.45
63306;BME280;50735;52.060;1.248;2023-05-09T05:08:07;100802.79;;;13.15;63.55
63306;BME280;50735;52.060;1.248;2023-05-09T05:10:39;100803.39;;;13.20;63.34
63306;BME280;50735;52.060;1.248;2023-05-09T05:13:10;100805.71;;;13.07;63.76
63306;BME280;50735;52.060;1.248;2023-05-09T05:15:42;100799.80;;;13.09;63.88
63306;BME280;50735;52.060;1.248;2023-05-09T05:18:14;100795.99;;;13.17;63.59
63306;BME280;50735;52.060;1.248;2023-05-09T05:20:46;100794.57;;;13.21;63.66
63306;BME280;50735;52.060;1.248;2023-05-09T05:23:18;100791.23;;;13.21;63.71
63306;BME280;50735;52.060;1.248;2023-05-09T05:25:50;100789.45;;;13.18;63.85
63306;BME280;50735;52.060;1.248;2023-05-09T05:28:22;100788.25;;;13.26;63.60
63306;BME280;50735;52.060;1.248;2023-05-09T05:30:53;100787.98;;;13.33;63.58
63306;BME280;50735;52.060;1.248;2023-05-09T05:33:25;100789.65;;;13.37;63.37
63306;BME280;50735;52.060;1.248;2023-05-09T05:35:57;100789.97;;;13.42;63.38
63306;BME280;50735;52.060;1.248;2023-05-09T05:38:28;100788.01;;;13.43;63.33
63306;BME280;50735;52.060;1.248;2023-05-09T05:41:00;100789.56;;;13.50;63.51
63306;BME280;50735;52.060;1.248;2023-05-09T05:43:32;100786.98;;;13.29;63.38
63306;BME280;50735;52.060;1.248;2023-05-09T05:46:04;100783.82;;;13.27;63.47
63306;BME280;50735;52.060;1.248;2023-05-09T05:48:35;100782.77;;;13.21;63.53
63306;BME280;50735;52.060;1.248;2023-05-09T05:51:07;100785.30;;;13.34;64.16
63306;BME280;50735;52.060;1.248;2023-05-09T05:53:39;100784.94;;;13.36;63.86
63306;BME280;50735;52.060;1.248;2023-05-09T05:56:11;100785.30;;;13.46;63.78
63306;BME280;50735;52.060;1.248;2023-05-09T05:58:42;100786.12;;;13.09;63.69
63306;BME280;50735;52.060;1.248;2023-05-09T06:01:14;100779.11;;;13.45;64.12
63306;BME280;50735;52.060;1.248;2023-05-09T06:03:46;100777.08;;;13.01;64.27
63306;BME280;50735;52.060;1.248;2023-05-09T06:06:18;100775.83;;;13.38;64.41
63306;BME280;50735;52.060;1.248;2023-05-09T06:08:50;100772.31;;;12.90;64.98
63306;BME280;50735;52.060;1.248;2023-05-09T06:11:22;100769.61;;;13.34;64.44
63306;BME280;50735;52.060;1.248;2023-05-09T06:13:54;100761.44;;;13.23;64.16
63306;BME280;50735;52.060;1.248;2023-05-09T06:16:26;100759.28;;;13.43;64.25
63306;BME280;50735;52.060;1.248;2023-05-09T06:18:58;100759.61;;;13.27;64.50
63306;BME280;50735;52.060;1.248;2023-05-09T06:21:30;100762.86;;;13.59;63.97
63306;BME280;50735;52.060;1.248;2023-05-09T06:24:02;100759.77;;;13.48;63.65
63306;BME280;50735;52.060;1.248;2023-05-09T06:26:35;100759.69;;;13.67;63.67
63306;BME280;50735;52.060;1.248;2023-05-09T06:29:07;100762.55;;;13.63;63.25
63306;BME280;50735;52.060;1.248;2023-05-09T06:31:39;100763.64;;;13.77;63.34
63306;BME280;50735;52.060;1.248;2023-05-09T06:34:11;100760.58;;;13.67;63.46
63306;BME280;50735;52.060;1.248;2023-05-09T06:36:42;100758.20;;;13.29;63.22
63306;BME280;50735;52.060;1.248;2023-05-09T06:39:15;100758.48;;;13.69;63.23
63306;BME280;50735;52.060;1.248;2023-05-09T06:41:47;100757.41;;;13.73;63.35
63306;BME280;50735;52.060;1.248;2023-05-09T06:44:19;100754.41;;;13.89;62.99
63306;BME280;50735;52.060;1.248;2023-05-09T06:46:50;100748.62;;;14.03;62.88
63306;BME280;50735;52.060;1.248;2023-05-09T06:49:22;100743.06;;;13.68;62.99
63306;BME280;50735;52.060;1.248;2023-05-09T06:51:54;100742.12;;;13.99;62.87
63306;BME280;50735;52.060;1.248;2023-05-09T06:54:26;100739.68;;;14.33;62.89
63306;BME280;50735;52.060;1.248;2023-05-09T06:56:58;100740.33;;;14.42;62.79
63306;BME280;50735;52.060;1.248;2023-05-09T06:59:30;100739.62;;;14.34;62.43
63306;BME280;50735;52.060;1.248;2023-05-09T07:02:01;100738.45;;;14.21;62.20
63306;BME280;50735;52.060;1.248;2023-05-09T07:04:33;100739.67;;;14.46;62.02
63306;BME280;50735;52.060;1.248;2023-05-09T07:07:05;100737.95;;;14.29;62.08
63306;BME280;50735;52.060;1.248;2023-05-09T07:09:37;100735.38;;;14.47;61.93
63306;BME280;50735;52.060;1.248;2023-05-09T07:12:08;100734.28;;;14.28;61.83
63306;BME280;50735;52.060;1.248;2023-05-09T07:14:40;100733.83;;;14.26;62.01
63306;BME280;50735;52.060;1.248;2023-05-09T07:17:12;100734.64;;;14.33;61.94
63306;BME280;50735;52.060;1.248;2023-05-09T07:19:44;100731.81;;;14.43;61.82
63306;BME280;50735;52.060;1.248;2023-05-09T07:22:16;100732.90;;;14.57;61.49
63306;BME280;50735;52.060;1.248;2023-05-09T07:24:47;100735.59;;;14.41;61.38
63306;BME280;50735;52.060;1.248;2023-05-09T07:27:19;100735.73;;;14.25;61.27
63306;BME280;50735;52.060;1.248;2023-05-09T07:29:51;100737.66;;;14.50;61.35
63306;BME280;50735;52.060;1.248;2023-05-09T07:32:22;100741.23;;;14.39;61.63
63306;BME280;50735;52.060;1.248;2023-05-09T07:34:54;100742.20;;;14.42;61.52
63306;BME280;50735;52.060;1.248;2023-05-09T07:37:26;100748.58;;;14.05;61.95
63306;BME280;50735;52.060;1.248;2023-05-09T07:39:58;100748.56;;;13.98;61.68
63306;BME280;50735;52.060;1.248;2023-05-09T07:42:29;100752.09;;;14.31;61.68
63306;BME280;50735;52.060;1.248;2023-05-09T07:45:01;100754.82;;;14.04;61.53
63306;BME280;50735;52.060;1.248;2023-05-09T07:47:33;100752.51;;;14.01;61.83
63306;BME280;50735;52.060;1.248;2023-05-09T07:50:06;100752.90;;;13.99;62.04
63306;BME280;50735;52.060;1.248;2023-05-09T07:52:38;100755.75;;;13.96;62.02
63306;BME280;50735;52.060;1.248;2023-05-09T07:55:10;100756.72;;;13.91;62.15
63306;BME280;50735;52.060;1.248;2023-05-09T07:57:42;100754.57;;;13.95;61.87
63306;BME280;50735;52.060;1.248;2023-05-09T08:00:14;100754.41;;;13.85;62.07
63306;BME280;50735;52.060;1.248;2023-05-09T08:02:46;100752.40;;;14.05;61.65
63306;BME280;50735;52.060;1.248;2023-05-09T08:05:17;100754.13;;;13.95;62.12
63306;BME280;50735;52.060;1.248;2023-05-09T08:07:49;100753.37;;;14.16;61.95
63306;BME280;50735;52.060;1.248;2023-05-09T08:10:21;100755.04;;;14.26;62.06
63306;BME280;50735;52.060;1.248;2023-05-09T08:12:53;100753.68;;;14.28;62.06
63306;BME280;50735;52.060;1.248;2023-05-09T08:15:24;100753.05;;;14.38;61.95
63306;BME280;50735;52.060;1.248;2023-05-09T08:17:56;100754.02;;;14.33;62.34
63306;BME280;50735;52.060;1.248;2023-05-09T08:20:28;100753.35;;;14.41;62.07
63306;BME280;50735;52.060;1.248;2023-05-09T08:23:00;100757.54;;;14.51;61.89
63306;BME280;50735;52.060;1.248;2023-05-09T08:25:32;100756.03;;;14.32;61.76
63306;BME280;50735;52.060;1.248;2023-05-09T08:28:04;100757.89;;;14.35;61.48
63306;BME280;50735;52.060;1.248;2023-05-09T08:30:36;100760.90;;;14.26;61.66
63306;BME280;50735;52.060;1.248;2023-05-09T08:33:07;100758.13;;;14.37;61.82
63306;BME280;50735;52.060;1.248;2023-05-09T08:35:39;100755.88;;;14.15;62.15
63306;BME280;50735;52.060;1.248;2023-05-09T08:38:11;100753.92;;;14.39;62.10
63306;BME280;50735;52.060;1.248;2023-05-09T08:40:43;100751.36;;;14.61;62.42
63306;BME280;50735;52.060;1.248;2023-05-09T08:43:16;100750.83;;;14.24;61.82
63306;BME280;50735;52.060;1.248;2023-05-09T08:45:50;100755.11;;;14.82;61.68
63306;BME280;50735;52.060;1.248;2023-05-09T08:48:25;100751.77;;;14.75;61.55
63306;BME280;50735;52.060;1.248;2023-05-09T08:51:00;100750.41;;;14.78;61.84
63306;BME280;50735;52.060;1.248;2023-05-09T08:53:32;100751.86;;;14.55;62.23
63306;BME280;50735;52.060;1.248;2023-05-09T08:56:05;100754.74;;;14.63;61.40
63306;BME280;50735;52.060;1.248;2023-05-09T08:58:37;100752.05;;;14.37;61.69
63306;BME280;50735;52.060;1.248;2023-05-09T09:01:12;100754.75;;;14.63;62.35
63306;BME280;50735;52.060;1.248;2023-05-09T09:03:45;100762.06;;;14.54;61.10
63306;BME280;50735;52.060;1.248;2023-05-09T09:06:17;100762.81;;;14.47;61.45
63306;BME280;50735;52.060;1.248;2023-05-09T09:08:50;100761.39;;;14.45;61.54
63306;BME280;50735;52.060;1.248;2023-05-09T09:11:23;100759.13;;;14.58;61.54
63306;BME280;50735;52.060;1.248;2023-05-09T09:14:00;100757.19;;;14.90;61.81
63306;BME280;50735;52.060;1.248;2023-05-09T09:16:33;100750.98;;;15.02;60.72
63306;BME280;50735;52.060;1.248;2023-05-09T09:19:10;100750.66;;;15.28;61.13
63306;BME280;50735;52.060;1.248;2023-05-09T09:21:44;100749.35;;;15.57;60.17
63306;BME280;50735;52.060;1.248;2023-05-09T09:24:21;100748.06;;;15.79;58.99
63306;BME280;50735;52.060;1.248;2023-05-09T09:26:53;100744.75;;;15.30;58.24
63306;BME280;50735;52.060;1.248;2023-05-09T09:29:25;100741.14;;;15.32;58.98
63306;BME280;50735;52.060;1.248;2023-05-09T09:32:00;100742.38;;;15.46;58.24
63306;BME280;50735;52.060;1.248;2023-05-09T09:34:33;100742.45;;;15.23;58.09
63306;BME280;50735;52.060;1.248;2023-05-09T09:37:05;100743.78;;;15.27;57.76
63306;BME280;50735;52.060;1.248;2023-05-09T09:39:37;100742.50;;;15.27;58.76
63306;BME280;50735;52.060;1.248;2023-05-09T09:42:10;100741.03;;;15.59;58.28
63306;BME280;50735;52.060;1.248;2023-05-09T09:44:42;100736.78;;;15.60;58.16
63306;BME280;50735;52.060;1.248;2023-05-09T09:47:14;100738.21;;;15.54;58.17
63306;BME280;50735;52.060;1.248;2023-05-09T09:49:45;100734.08;;;15.57;58.03
63306;BME280;50735;52.060;1.248;2023-05-09T09:52:22;100731.42;;;15.87;57.84
63306;BME280;50735;52.060;1.248;2023-05-09T09:54:54;100733.83;;;15.62;57.19
63306;BME280;50735;52.060;1.248;2023-05-09T09:57:33;100730.74;;;15.89;57.11
63306;BME280;50735;52.060;1.248;2023-05-09T10:00:06;100723.47;;;15.74;56.96
63306;BME280;50735;52.060;1.248;2023-05-09T10:02:46;100719.49;;;15.83;56.96
63306;BME280;50735;52.060;1.248;2023-05-09T10:05:20;100721.33;;;16.05;57.74
63306;BME280;50735;52.060;1.248;2023-05-09T10:07:54;100721.15;;;15.92;57.54
63306;BME280;50735;52.060;1.248;2023-05-09T10:10:27;100718.81;;;15.86;57.11
63306;BME280;50735;52.060;1.248;2023-05-09T10:13:02;100720.00;;;16.28;57.23
63306;BME280;50735;52.060;1.248;2023-05-09T10:15:35;100717.29;;;16.40;57.51
63306;BME280;50735;52.060;1.248;2023-05-09T10:18:09;100708.97;;;16.60;57.17
63306;BME280;50735;52.060;1.248;2023-05-09T10:20:43;100703.40;;;16.78;55.99
63306;BME280;50735;52.060;1.248;2023-05-09T10:23:15;100703.86;;;16.96;56.32
63306;BME280;50735;52.060;1.248;2023-05-09T10:25:56;100701.25;;;17.27;55.09
63306;BME280;50735;52.060;1.248;2023-05-09T10:28:31;100699.70;;;17.05;53.96
63306;BME280;50735;52.060;1.248;2023-05-09T10:31:11;100696.26;;;17.11;54.55
63306;BME280;50735;52.060;1.248;2023-05-09T10:33:46;100694.18;;;17.41;54.69
63306;BME280;50735;52.060;1.248;2023-05-09T10:36:21;100693.90;;;17.87;53.53
63306;BME280;50735;52.060;1.248;2023-05-09T10:38:54;100688.97;;;17.90;51.17
63306;BME280;50735;52.060;1.248;2023-05-09T10:41:25;100687.42;;;17.75;49.65
63306;BME280;50735;52.060;1.248;2023-05-09T10:43:58;100680.71;;;16.98;50.43
63306;BME280;50735;52.060;1.248;2023-05-09T10:46:31;100681.92;;;17.68;50.51
63306;BME280;50735;52.060;1.248;2023-05-09T10:49:03;100673.74;;;17.56;51.91
63306;BME280;50735;52.060;1.248;2023-05-09T10:51:35;100671.98;;;18.22;51.61
63306;BME280;50735;52.060;1.248;2023-05-09T10:54:25;100667.56;;;18.49;51.06
63306;BME280;50735;52.060;1.248;2023-05-09T10:56:57;100668.48;;;18.32;49.95
63306;BME280;50735;52.060;1.248;2023-05-09T10:59:33;100663.57;;;18.33;48.94
63306;BME280;50735;52.060;1.248;2023-05-09T11:02:10;100666.10;;;17.93;49.70
63306;BME280;50735;52.060;1.248;2023-05-09T11:04:43;100665.39;;;17.66;49.67
63306;BME280;50735;52.060;1.248;2023-05-09T11:07:24;100669.49;;;17.96;50.52
63306;BME280;50735;52.060;1.248;2023-05-09T11:10:06;100670.88;;;17.98;50.68
63306;BME280;50735;52.060;1.248;2023-05-09T11:12:52;100671.42;;;17.41;49.13
63306;BME280;50735;52.060;1.248;2023-05-09T11:15:25;100677.59;;;17.38;48.89
63306;BME280;50735;52.060;1.248;2023-05-09T11:18:05;100675.69;;;17.63;48.21
63306;BME280;50735;52.060;1.248;2023-05-09T11:20:42;100676.91;;;17.96;48.35
63306;BME280;50735;52.060;1.248;2023-05-09T11:23:15;100676.21;;;18.13;48.33
63306;BME280;50735;52.060;1.248;2023-05-09T11:25:48;100681.85;;;18.24;48.16
63306;BME280;50735;52.060;1.248;2023-05-09T11:28:28;100688.72;;;17.58;46.19
63306;BME280;50735;52.060;1.248;2023-05-09T11:31:09;100689.29;;;17.28;48.03
63306;BME280;50735;52.060;1.248;2023-05-09T11:33:42;100692.05;;;17.34;49.02
63306;BME280;50735;52.060;1.248;2023-05-09T11:36:16;100690.48;;;16.92;49.04
63306;BME280;50735;52.060;1.248;2023-05-09T11:38:59;100691.32;;;16.98;48.94
63306;BME280;50735;52.060;1.248;2023-05-09T11:41:37;100689.28;;;16.84;50.24
63306;BME280;50735;52.060;1.248;2023-05-09T11:44:19;100687.67;;;16.70;50.25
63306;BME280;50735;52.060;1.248;2023-05-09T11:46:51;100686.85;;;16.24;49.78
63306;BME280;50735;52.060;1.248;2023-05-09T11:49:23;100686.04;;;16.32;49.62
63306;BME280;50735;52.060;1.248;2023-05-09T11:51:58;100679.90;;;16.08;50.09
63306;BME280;50735;52.060;1.248;2023-05-09T11:54:30;100676.16;;;16.08;50.10
63306;BME280;50735;52.060;1.248;2023-05-09T11:57:02;100669.62;;;16.44;50.62
63306;BME280;50735;52.060;1.248;2023-05-09T11:59:34;100671.84;;;16.85;49.87
63306;BME280;50735;52.060;1.248;2023-05-09T12:02:06;100672.53;;;16.03;49.23
63306;BME280;50735;52.060;1.248;2023-05-09T12:04:39;100680.08;;;15.62;50.01
63306;BME280;50735;52.060;1.248;2023-05-09T12:07:10;100679.29;;;15.70;50.98
63306;BME280;50735;52.060;1.248;2023-05-09T12:09:43;100680.58;;;15.39;53.27
63306;BME280;50735;52.060;1.248;2023-05-09T12:12:15;100679.93;;;15.32;53.31
63306;BME280;50735;52.060;1.248;2023-05-09T12:14:47;100679.81;;;15.36;51.59
63306;BME280;50735;52.060;1.248;2023-05-09T12:17:19;100678.98;;;15.79;52.75
63306;BME280;50735;52.060;1.248;2023-05-09T12:19:51;100680.25;;;15.67;51.95
63306;BME280;50735;52.060;1.248;2023-05-09T12:22:23;100679.67;;;15.13;51.99
63306;BME280;50735;52.060;1.248;2023-05-09T12:24:55;100677.46;;;15.71;53.62
63306;BME280;50735;52.060;1.248;2023-05-09T12:27:27;100677.29;;;15.53;52.19
63306;BME280;50735;52.060;1.248;2023-05-09T12:29:59;100676.49;;;15.43;51.27
63306;BME280;50735;52.060;1.248;2023-05-09T12:32:32;100676.83;;;15.77;51.47
63306;BME280;50735;52.060;1.248;2023-05-09T12:35:05;100674.59;;;15.71;50.10
63306;BME280;50735;52.060;1.248;2023-05-09T12:37:38;100676.09;;;15.76;50.50
63306;BME280;50735;52.060;1.248;2023-05-09T12:40:11;100681.29;;;15.77;51.00
63306;BME280;50735;52.060;1.248;2023-05-09T12:42:44;100674.90;;;16.11;51.16
63306;BME280;50735;52.060;1.248;2023-05-09T12:45:16;100671.08;;;16.12;50.73
63306;BME280;50735;52.060;1.248;2023-05-09T12:47:50;100672.54;;;15.98;50.79
63306;BME280;50735;52.060;1.248;2023-05-09T12:50:30;100674.61;;;16.27;50.37
63306;BME280;50735;52.060;1.248;2023-05-09T12:53:02;100675.74;;;15.97;50.17
63306;BME280;50735;52.060;1.248;2023-05-09T12:55:38;100669.57;;;16.00;50.04
63306;BME280;50735;52.060;1.248;2023-05-09T12:58:13;100670.01;;;16.41;50.20
63306;BME280;50735;52.060;1.248;2023-05-09T13:00:45;100667.15;;;16.68;49.32
63306;BME280;50735;52.060;1.248;2023-05-09T13:03:21;100664.84;;;16.85;49.40
63306;BME280;50735;52.060;1.248;2023-05-09T13:05:53;100662.69;;;16.83;49.74
63306;BME280;50735;52.060;1.248;2023-05-09T13:08:26;100662.51;;;16.52;49.60
63306;BME280;50735;52.060;1.248;2023-05-09T13:10:59;100659.26;;;16.77;50.51
63306;BME280;50735;52.060;1.248;2023-05-09T13:13:31;100654.15;;;17.00;50.09
63306;BME280;50735;52.060;1.248;2023-05-09T13:16:04;100655.77;;;16.87;49.72
63306;BME280;50735;52.060;1.248;2023-05-09T13:18:36;100655.96;;;16.74;49.18
63306;BME280;50735;52.060;1.248;2023-05-09T13:21:07;100652.01;;;16.81;49.70